createdAt,value
2023-05-11T01:01:23.180Z,101043.41
2023-05-11T01:03:52.175Z,101036.47
2023-05-11T01:06:29.068Z,101032.98
2023-05-11T01:09:03.653Z,101032.12
2023-05-11T01:11:42.325Z,101030.37
2023-05-11T01:14:16.530Z,101036.41
2023-05-11T01:16:49.482Z,101034.67
2023-05-11T01:19:33.483Z,101034.67
2023-05-11T01:22:15.928Z,101031.17
2023-05-11T01:25:04.849Z,101037.22
2023-05-11T01:28:10.266Z,101038.95
2023-05-11T01:30:48.490Z,101032.02
2023-05-11T01:33:21.691Z,101033.73
2023-05-11T01:35:54.817Z,101030.28
2023-05-11T01:38:28.335Z,101032.88
2023-05-11T01:40:59.764Z,101030.23
2023-05-11T01:43:33.595Z,101022.44
2023-05-11T01:46:10.383Z,101022.40
2023-05-11T01:48:42.590Z,101027.58
2023-05-11T01:51:13.461Z,101027.55
2023-05-11T01:53:44.505Z,101030.98
2023-05-11T01:56:14.550Z,101025.74
2023-05-11T01:58:45.483Z,101041.30
2023-05-11T02:01:16.557Z,101031.77
2023-05-11T02:03:49.142Z,101033.42
2023-05-11T02:06:20.769Z,101036.01
2023-05-11T02:08:52.539Z,101027.33
2023-05-11T02:11:27.858Z,101034.20
2023-05-11T02:13:59.639Z,101026.38
2023-05-11T02:16:33.283Z,101029.83
2023-05-11T02:19:03.320Z,101035.00
2023-05-11T02:21:33.451Z,101034.95
2023-05-11T02:24:08.583Z,101032.36
2023-05-11T02:26:39.027Z,101029.75
2023-05-11T02:29:07.996Z,101033.16
2023-05-11T02:31:49.226Z,101034.00
2023-05-11T02:34:22.733Z,101030.54
2023-05-11T02:36:57.717Z,101026.16
2023-05-11T02:39:33.576Z,101035.62
2023-05-11T02:42:10.984Z,101039.00
2023-05-11T02:44:44.604Z,101039.00
2023-05-11T02:47:15.084Z,101038.94
2023-05-11T02:49:49.130Z,101033.75
2023-05-11T02:52:18.541Z,101034.55
2023-05-11T02:54:53.241Z,101037.14
2023-05-11T02:57:23.150Z,101037.13
2023-05-11T02:59:53.783Z,101039.72
2023-05-11T03:02:23.237Z,101041.42
2023-05-11T03:04:52.796Z,101044.01
2023-05-11T03:07:22.068Z,101040.56
2023-05-11T03:09:51.561Z,101037.98
2023-05-11T03:12:21.301Z,101038.87
2023-05-11T03:14:52.384Z,101041.45
2023-05-11T03:17:22.643Z,101046.66
2023-05-11T03:19:52.958Z,101044.92
2023-05-11T03:22:22.892Z,101045.82
2023-05-11T03:24:53.399Z,101042.37
2023-05-11T03:27:23.860Z,101046.70
2023-05-11T03:29:54.596Z,101045.82
2023-05-11T03:32:23.776Z,101049.30
2023-05-11T03:34:53.254Z,101057.94
2023-05-11T03:37:22.966Z,101051.91
2023-05-11T03:39:58.064Z,101058.00
2023-05-11T03:42:28.334Z,101062.38
2023-05-11T03:44:59.255Z,101058.97
2023-05-11T03:47:29.364Z,101062.52
2023-05-11T03:49:59.909Z,101060.83
2023-05-11T03:52:31.741Z,101065.22
2023-05-11T03:55:02.681Z,101068.78
2023-05-11T03:57:33.140Z,101072.33
2023-05-11T04:00:03.306Z,101067.25
2023-05-11T04:02:36.816Z,101068.21
2023-05-11T04:05:09.085Z,101074.41
2023-05-11T04:07:38.924Z,101076.53
2023-05-11T04:10:09.641Z,101070.73
2023-05-11T04:12:38.620Z,101064.03
2023-05-11T04:15:09.273Z,101060.72
2023-05-11T04:17:38.782Z,101051.38
2023-05-11T04:20:10.008Z,101050.70
2023-05-11T04:22:38.875Z,101052.05
2023-05-11T04:25:08.926Z,101047.61
2023-05-11T04:27:41.629Z,101044.63
2023-05-11T04:30:11.788Z,101047.80
2023-05-11T04:32:40.826Z,101036.36
2023-05-11T04:35:11.471Z,101042.34
2023-05-11T04:37:42.441Z,101046.97
2023-05-11T04:40:13.585Z,101058.16
2023-05-11T04:42:43.112Z,101046.47
2023-05-11T04:45:17.035Z,101055.84
2023-05-11T04:47:46.174Z,101048.30
2023-05-11T04:50:15.792Z,101046.64
2023-05-11T04:52:44.955Z,101050.06
2023-05-11T04:55:13.939Z,101049.48
2023-05-11T04:57:43.018Z,101052.34
2023-05-11T05:00:13.401Z,101058.47
2023-05-11T05:02:42.423Z,101047.26
2023-05-11T05:05:13.855Z,101053.77
2023-05-11T05:07:42.731Z,101056.20
2023-05-11T05:10:12.412Z,101061.42
2023-05-11T05:12:41.344Z,101058.70
2023-05-11T05:15:12.169Z,101057.59
2023-05-11T05:17:40.977Z,101061.13
2023-05-11T05:20:11.573Z,101067.92
2023-05-11T05:22:41.169Z,101064.34
2023-05-11T05:25:11.494Z,101063.79
2023-05-11T05:27:42.468Z,101063.23
2023-05-11T05:30:17.922Z,101072.45
2023-05-11T05:32:47.669Z,101077.20
2023-05-11T05:35:17.761Z,101079.69
2023-05-11T05:37:48.962Z,101078.40
2023-05-11T05:40:19.430Z,101078.23
2023-05-11T05:42:55.415Z,101078.41
2023-05-11T05:45:28.511Z,101089.31
2023-05-11T05:48:00.053Z,101084.72
2023-05-11T05:50:33.026Z,101078.25
2023-05-11T05:53:04.849Z,101081.92
2023-05-11T05:55:35.190Z,101076.39
2023-05-11T05:58:05.773Z,101082.88
2023-05-11T06:00:37.527Z,101082.27
2023-05-11T06:03:08.254Z,101077.78
2023-05-11T06:05:38.101Z,101077.47
2023-05-11T06:08:11.009Z,101082.80
2023-05-11T06:10:41.148Z,101084.08
2023-05-11T06:13:13.301Z,101088.33
2023-05-11T06:15:44.041Z,101084.50
2023-05-11T06:18:28.811Z,101090.69
2023-05-11T06:21:00.055Z,101083.82
2023-05-11T06:23:29.835Z,101094.84
2023-05-11T06:26:02.714Z,101094.81
2023-05-11T06:28:34.064Z,101093.06
2023-05-11T06:42:27.407Z,101097.87
2023-05-11T06:45:11.688Z,101099.23
2023-05-11T06:47:46.867Z,101100.05
2023-05-11T06:50:21.434Z,101099.94
2023-05-11T06:52:54.635Z,101105.45
2023-05-11T06:55:27.896Z,101103.58
2023-05-11T06:58:02.256Z,101107.86
2023-05-11T07:00:37.223Z,101109.28
2023-05-11T07:03:09.783Z,101112.14
2023-05-11T07:05:42.236Z,101116.71
2023-05-11T07:08:14.429Z,101106.97
2023-05-11T07:10:47.000Z,101108.03
2023-05-11T07:13:19.184Z,101095.91
2023-05-11T07:15:51.591Z,101093.54
2023-05-11T07:18:23.871Z,101094.93
2023-05-11T07:20:56.186Z,101091.06
2023-05-11T07:23:28.458Z,101093.54
2023-05-11T07:26:01.217Z,101095.33
2023-05-11T07:28:33.620Z,101091.47
2023-05-11T07:31:07.241Z,101093.20
2023-05-11T07:33:41.539Z,101089.60
2023-05-11T07:36:16.383Z,101096.30
2023-05-11T07:38:48.657Z,101093.09
2023-05-11T07:41:23.207Z,101089.48
2023-05-11T07:43:55.586Z,101088.62
2023-05-11T07:46:27.972Z,101088.19
2023-05-11T07:49:14.463Z,101085.41
2023-05-11T07:51:52.760Z,101087.95
2023-05-11T07:54:25.102Z,101098.30
2023-05-11T07:56:57.683Z,101087.98
2023-05-11T07:59:29.954Z,101091.44
2023-05-11T08:02:02.691Z,101096.72
2023-05-11T08:04:35.190Z,101095.87
2023-05-11T08:07:07.914Z,101086.40
2023-05-11T08:09:40.831Z,101088.28
2023-05-11T08:12:13.572Z,101088.04
2023-05-11T08:14:45.768Z,101089.70
2023-05-11T08:17:18.029Z,101080.13
2023-05-11T08:19:51.220Z,101085.31
2023-05-11T08:22:24.319Z,101086.02
2023-05-11T08:24:56.458Z,101081.40
2023-05-11T08:27:29.075Z,101079.42
2023-05-11T08:30:01.887Z,101080.09
2023-05-11T08:32:46.640Z,101079.02
2023-05-11T08:35:26.712Z,101072.67
2023-05-11T08:37:59.288Z,101072.22
2023-05-11T08:40:33.980Z,101069.06
2023-05-11T08:43:08.362Z,101070.23
2023-05-11T08:45:42.291Z,101069.05
2023-05-11T08:48:17.846Z,101071.88
2023-05-11T08:50:51.091Z,101066.14
2023-05-11T08:53:24.102Z,101071.45
2023-05-11T08:55:59.191Z,101073.81
2023-05-11T08:58:32.457Z,101062.70
2023-05-11T09:01:11.256Z,101058.46
2023-05-11T09:03:46.939Z,101069.77
2023-05-11T09:06:20.049Z,101057.53
2023-05-11T09:08:52.664Z,101073.41
2023-05-11T09:11:25.889Z,101071.05
2023-05-11T09:13:58.786Z,101067.94
2023-05-11T09:16:37.228Z,101063.13
2023-05-11T09:19:15.096Z,101061.05
2023-05-11T09:21:48.327Z,101063.70
2023-05-11T09:24:22.816Z,101050.72
2023-05-11T09:29:39.825Z,101060.05
2023-05-11T09:32:12.043Z,101051.34
2023-05-11T09:34:44.585Z,101047.58
2023-05-11T09:37:20.496Z,101049.67
2023-05-11T09:42:32.832Z,101054.47
2023-05-11T09:45:11.885Z,101056.01
2023-05-11T09:47:44.229Z,101041.48
2023-05-11T09:50:26.210Z,101045.50
2023-05-11T09:52:59.021Z,101035.14
2023-05-11T09:55:31.646Z,101048.84
2023-05-11T09:58:04.668Z,101044.51
2023-05-11T10:00:51.212Z,101037.56
2023-05-11T10:03:25.862Z,101036.45
2023-05-11T10:06:02.654Z,101030.91
2023-05-11T10:08:44.692Z,101022.63
2023-05-11T10:11:17.359Z,101030.44
2023-05-11T10:13:49.998Z,101030.05
2023-05-11T10:16:23.846Z,101017.19
2023-05-11T10:18:58.121Z,101016.44
2023-05-11T10:21:31.959Z,101020.80
2023-05-11T10:24:06.683Z,101022.16
2023-05-11T10:26:40.251Z,101014.33
2023-05-11T10:29:13.330Z,101025.30
2023-05-11T10:31:48.436Z,101022.63
2023-05-11T10:34:23.478Z,101017.66
2023-05-11T10:36:57.124Z,101017.77
2023-05-11T10:39:29.281Z,101009.21
2023-05-11T10:42:18.018Z,101005.97
2023-05-11T10:45:07.414Z,101002.36
2023-05-11T10:48:18.352Z,101009.38
2023-05-11T10:51:11.910Z,100997.88
2023-05-11T10:54:02.093Z,101005.97
2023-05-11T10:56:47.953Z,101003.30
2023-05-11T10:59:53.440Z,100992.63
2023-05-11T11:02:32.248Z,100987.00
2023-05-11T11:05:11.199Z,101006.14
2023-05-11T11:08:04.825Z,100988.35
2023-05-11T11:10:39.190Z,100986.74
2023-05-11T11:13:13.016Z,100986.92
2023-05-11T11:16:16.170Z,100981.41
2023-05-11T11:18:49.110Z,100992.44
2023-05-11T11:21:42.565Z,100987.77
2023-05-11T11:24:48.044Z,100994.34
2023-05-11T11:27:20.351Z,100990.17
2023-05-11T11:30:19.630Z,100983.70
2023-05-11T11:32:54.166Z,100980.67
2023-05-11T11:35:50.049Z,100986.17
2023-05-11T11:38:23.025Z,100986.79
2023-05-11T11:40:55.594Z,100992.13
2023-05-11T11:43:29.815Z,100990.23
2023-05-11T11:46:03.692Z,100971.02
2023-05-11T11:48:41.696Z,100993.15
2023-05-11T11:51:14.854Z,100991.49
2023-05-11T11:54:09.072Z,100988.83
2023-05-11T11:56:46.132Z,100986.90
2023-05-11T11:59:19.210Z,100979.84
2023-05-11T12:01:55.060Z,100985.18
2023-05-11T12:04:47.640Z,100983.59
2023-05-11T12:07:22.763Z,100986.54
2023-05-11T12:09:55.996Z,100983.48
2023-05-11T12:12:28.653Z,100977.30
2023-05-11T12:15:02.512Z,100982.63
2023-05-11T12:17:39.367Z,100982.84
2023-05-11T12:20:17.500Z,100984.62
2023-05-11T12:22:50.346Z,100978.03
2023-05-11T12:25:23.639Z,100979.02
2023-05-11T12:27:58.210Z,100971.31
2023-05-11T12:30:32.444Z,100973.47
2023-05-11T12:33:05.267Z,100973.00
2023-05-11T12:35:40.538Z,100969.19
2023-05-11T12:38:13.854Z,100968.14
2023-05-11T12:40:51.165Z,100972.89
2023-05-11T12:43:24.632Z,100961.06
2023-05-11T12:45:56.990Z,100964.98
2023-05-11T12:48:29.418Z,100961.83
2023-05-11T12:51:01.682Z,100957.09
2023-05-11T12:53:38.270Z,100936.91
2023-05-11T12:56:10.870Z,100950.14
2023-05-11T12:58:43.646Z,100943.70
2023-05-11T13:01:15.950Z,100946.80
2023-05-11T13:03:49.207Z,100937.27
2023-05-11T13:06:20.962Z,100938.74
2023-05-11T13:08:54.045Z,100946.11
2023-05-11T13:11:28.825Z,100949.91
2023-05-11T13:14:01.158Z,100944.14
2023-05-11T13:16:35.034Z,100942.09
2023-05-11T13:19:09.352Z,100935.67
2023-05-11T13:21:41.828Z,100944.34
2023-05-11T13:24:23.090Z,100938.75
2023-05-11T13:26:55.695Z,100932.48
2023-05-11T13:29:28.993Z,100929.13
2023-05-11T13:32:01.489Z,100923.53
2023-05-11T13:34:33.722Z,100932.31
2023-05-11T13:37:06.376Z,100929.64
2023-05-11T13:39:39.317Z,100928.37
2023-05-11T13:42:12.044Z,100928.54
2023-05-11T13:44:44.221Z,100926.14
2023-05-11T13:47:16.554Z,100929.73
2023-05-11T13:49:49.157Z,100929.64
2023-05-11T13:52:21.710Z,100927.17
2023-05-11T13:54:54.220Z,100922.86
2023-05-11T13:57:26.778Z,100922.96
2023-05-11T13:59:59.722Z,100920.20
2023-05-11T14:02:32.086Z,100923.28
2023-05-11T14:05:05.039Z,100921.72
2023-05-11T14:07:46.930Z,100915.04
2023-05-11T14:10:21.089Z,100917.76
2023-05-11T14:12:53.420Z,100918.27
2023-05-11T14:15:25.694Z,100919.18
2023-05-11T14:17:57.988Z,100911.55
2023-05-11T14:20:30.624Z,100904.83
2023-05-11T14:23:02.876Z,100903.98
2023-05-11T14:25:36.608Z,100899.52
2023-05-11T14:28:07.541Z,100903.05
2023-05-11T14:30:40.705Z,100900.55
2023-05-11T14:33:12.993Z,100900.45
2023-05-11T14:35:45.805Z,100903.83
2023-05-11T14:38:18.074Z,100901.08
2023-05-11T14:40:52.444Z,100900.05
2023-05-11T14:43:25.422Z,100900.45
2023-05-11T14:45:58.096Z,100903.75
2023-05-11T14:48:30.332Z,100898.15
2023-05-11T14:51:03.988Z,100901.59
2023-05-11T14:53:36.712Z,100902.06
2023-05-11T14:56:10.931Z,100910.18
2023-05-11T14:58:43.259Z,100906.33
2023-05-11T15:01:15.735Z,100908.28
2023-05-11T15:03:48.189Z,100896.92
2023-05-11T15:06:22.582Z,100909.90
2023-05-11T15:08:54.834Z,100905.05
2023-05-11T15:11:27.332Z,100905.27
2023-05-11T15:13:59.682Z,100910.05
2023-05-11T15:16:32.289Z,100906.98
2023-05-11T15:19:04.825Z,100905.70
2023-05-11T15:21:39.984Z,100911.27
2023-05-11T15:24:12.210Z,100907.19
2023-05-11T15:26:44.738Z,100907.45
2023-05-11T15:29:17.881Z,100911.53
2023-05-11T15:31:50.292Z,100909.94
2023-05-11T15:34:22.622Z,100907.23
2023-05-11T15:36:55.009Z,100906.53
2023-05-11T15:39:27.162Z,100905.95
2023-05-11T15:41:59.532Z,100921.32
2023-05-11T15:44:31.861Z,100919.00
2023-05-11T15:47:06.191Z,100914.79
2023-05-11T15:49:39.604Z,100914.95
2023-05-11T15:52:11.892Z,100911.59
2023-05-11T15:54:44.071Z,100926.75
2023-05-11T15:57:17.325Z,100921.65
2023-05-11T15:59:49.583Z,100917.48
2023-05-11T16:02:21.887Z,100921.13
2023-05-11T16:04:54.620Z,100918.59
2023-05-11T16:07:27.419Z,100919.64
2023-05-11T16:09:59.801Z,100919.19
2023-05-11T16:12:32.212Z,100920.34
2023-05-11T16:15:05.469Z,100919.77
2023-05-11T16:17:38.191Z,100916.43
2023-05-11T16:20:12.509Z,100912.17
2023-05-11T16:22:45.083Z,100914.17
2023-05-11T16:25:17.594Z,100916.96
2023-05-11T16:27:49.933Z,100912.70
2023-05-11T16:30:25.414Z,100915.54
2023-05-11T16:32:58.377Z,100914.92
2023-05-11T16:35:30.829Z,100916.90
2023-05-11T16:38:03.513Z,100906.47
2023-05-11T16:40:36.543Z,100912.86
2023-05-11T16:43:08.929Z,100913.11
2023-05-11T16:45:41.221Z,100916.86
2023-05-11T16:48:13.734Z,100916.23
2023-05-11T16:50:46.228Z,100912.03
2023-05-11T16:53:22.340Z,100917.56
2023-05-11T16:55:55.064Z,100923.12
2023-05-11T16:58:28.316Z,100914.56
2023-05-11T17:01:01.084Z,100922.77
2023-05-11T17:03:34.683Z,100923.81
2023-05-11T17:06:10.456Z,100924.05
2023-05-11T17:08:43.148Z,100926.89
2023-05-11T17:11:15.553Z,100923.61
2023-05-11T17:13:47.810Z,100928.23
2023-05-11T17:16:20.177Z,100925.99
2023-05-11T17:18:52.781Z,100929.80
2023-05-11T17:21:25.591Z,100923.93
2023-05-11T17:23:58.432Z,100929.40
2023-05-11T17:26:43.425Z,100929.70
2023-05-11T17:29:19.360Z,100937.02
2023-05-11T17:31:52.329Z,100937.23
2023-05-11T17:34:28.309Z,100940.14
2023-05-11T17:37:01.134Z,100936.05
2023-05-11T17:39:33.420Z,100945.06
2023-05-11T17:42:07.520Z,100936.55
2023-05-11T17:44:39.856Z,100947.38
2023-05-11T17:47:12.144Z,100946.78
2023-05-11T17:49:44.473Z,100947.00
2023-05-11T17:52:17.512Z,100951.64
2023-05-11T17:54:49.753Z,100946.65
2023-05-11T17:57:23.615Z,100947.84
2023-05-11T17:59:54.333Z,100963.06
2023-05-11T18:02:26.826Z,100961.56
2023-05-11T18:04:59.509Z,100956.55
2023-05-11T18:07:31.735Z,100969.03
2023-05-11T18:10:04.814Z,100968.38
2023-05-11T18:12:39.925Z,100963.36
2023-05-11T18:15:15.222Z,100974.97
2023-05-11T18:17:47.630Z,100979.59
2023-05-11T18:20:20.373Z,100972.83
2023-05-11T18:22:52.940Z,100974.84
2023-05-11T18:25:28.154Z,100982.02
2023-05-11T18:28:00.491Z,100979.72
2023-05-11T18:30:34.633Z,100979.94
2023-05-11T18:33:07.674Z,100989.83
2023-05-11T18:35:41.776Z,100990.05
2023-05-11T18:38:12.417Z,100992.00
2023-05-11T18:40:45.002Z,100987.84
2023-05-11T18:43:17.271Z,100995.88
2023-05-11T18:45:50.502Z,100989.06
2023-05-11T18:48:25.308Z,100999.75
2023-05-11T18:50:58.706Z,101001.68
2023-05-11T18:53:31.316Z,100996.62
2023-05-11T18:56:03.960Z,101005.55
2023-05-11T18:58:37.235Z,101003.95
2023-05-11T19:01:10.234Z,101001.49
2023-05-11T19:03:42.738Z,101000.81
2023-05-11T19:06:15.652Z,101006.25
2023-05-11T19:08:49.409Z,101008.99
2023-05-11T19:11:21.865Z,101011.70
2023-05-11T19:13:54.443Z,101013.58
2023-05-11T19:16:28.282Z,101017.20
2023-05-11T19:19:01.937Z,101028.60
2023-05-11T19:21:36.688Z,101025.20
2023-05-11T19:24:09.870Z,101023.56
2023-05-11T19:26:47.389Z,101028.05
2023-05-11T19:29:27.735Z,101032.56
2023-05-11T19:32:00.557Z,101035.25
2023-05-11T19:34:33.157Z,101033.55
2023-05-11T19:37:06.387Z,101029.22
2023-05-11T19:39:40.229Z,101037.99
2023-05-11T19:42:12.705Z,101049.38
2023-05-11T19:44:45.343Z,101037.23
2023-05-11T19:47:18.739Z,101036.34
2023-05-11T19:49:51.447Z,101037.22
2023-05-11T19:52:24.271Z,101040.75
2023-05-11T19:54:56.565Z,101038.16
2023-05-11T19:57:37.583Z,101033.84
2023-05-11T20:00:12.077Z,101040.86
2023-05-11T20:02:44.739Z,101041.75
2023-05-11T20:05:18.257Z,101049.63
2023-05-11T20:07:50.833Z,101049.63
2023-05-11T20:10:30.024Z,101045.25
2023-05-11T20:13:05.903Z,101047.86
2023-05-11T20:15:38.255Z,101057.48
2023-05-11T20:18:10.945Z,101047.04
2023-05-11T20:20:43.446Z,101055.77
2023-05-11T20:23:15.793Z,101049.68
2023-05-11T20:25:50.601Z,101055.82
2023-05-11T20:28:25.839Z,101054.94
2023-05-11T20:31:01.201Z,101059.30
2023-05-11T20:36:10.974Z,101054.11
2023-05-11T20:38:43.485Z,101061.99
2023-05-11T20:41:15.781Z,101057.66
2023-05-11T20:43:48.136Z,101062.04
2023-05-11T20:46:20.739Z,101055.92
2023-05-11T20:48:53.225Z,101058.53
2023-05-11T20:51:25.733Z,101058.56
2023-05-11T20:53:58.584Z,101064.68
2023-05-11T20:56:31.164Z,101064.70
2023-05-11T20:59:04.349Z,101065.58
2023-05-11T21:01:36.930Z,101060.40
2023-05-11T21:04:09.873Z,101061.28
2023-05-11T21:06:42.135Z,101070.00
2023-05-11T21:09:14.670Z,101070.05
2023-05-11T21:11:48.534Z,101075.30
2023-05-11T21:14:21.037Z,101086.67
2023-05-11T21:16:53.471Z,101081.45
2023-05-11T21:19:25.711Z,101083.25
2023-05-11T21:21:57.963Z,101087.64
2023-05-11T21:24:30.876Z,101089.41
2023-05-11T21:27:03.171Z,101083.34
2023-05-11T21:29:36.631Z,101093.84
2023-05-11T21:32:10.364Z,101095.63
2023-05-11T21:34:42.642Z,101087.83
2023-05-11T21:37:16.123Z,101096.58
2023-05-11T21:39:48.544Z,101097.47
2023-05-11T21:42:20.708Z,101098.37
2023-05-11T21:44:53.471Z,101094.91
2023-05-11T21:47:25.806Z,101097.54
2023-05-11T21:49:58.832Z,101095.84
2023-05-11T21:52:31.460Z,101100.20
2023-05-11T21:55:03.977Z,101099.36
2023-05-11T21:57:38.461Z,101099.37
2023-05-11T22:00:18.811Z,101106.34
2023-05-11T22:02:51.782Z,101102.86
2023-05-11T22:05:24.334Z,101109.83
2023-05-11T22:08:06.698Z,101107.23
2023-05-11T22:10:47.521Z,101103.77
2023-05-11T22:13:20.106Z,101107.27
2023-05-11T22:15:52.683Z,101109.02
2023-05-11T22:18:25.024Z,101111.63
2023-05-11T22:20:57.442Z,101116.02
2023-05-11T22:23:29.678Z,101115.14
2023-05-11T22:26:01.945Z,101112.56
2023-05-11T22:28:34.221Z,101117.79
2023-05-11T22:31:10.220Z,101117.81
2023-05-11T22:33:42.468Z,101122.16
2023-05-11T22:36:15.426Z,101123.03
2023-05-11T22:38:47.626Z,101126.53
2023-05-11T22:41:19.794Z,101123.05
2023-05-11T22:43:53.411Z,101123.07
2023-05-11T22:46:25.648Z,101130.05
2023-05-11T22:48:57.796Z,101124.81
2023-05-11T22:51:30.034Z,101133.53
2023-05-11T22:54:02.468Z,101132.68
2023-05-11T22:56:34.979Z,101129.20
2023-05-11T22:59:08.045Z,101130.95
2023-05-11T23:01:40.928Z,101131.84
2023-05-11T23:04:13.235Z,101130.98
2023-05-11T23:06:45.549Z,101129.25
2023-05-11T23:09:17.922Z,101130.98
2023-05-11T23:11:50.543Z,101127.52
2023-05-11T23:14:23.029Z,101131.83
2023-05-11T23:16:55.580Z,101131.84
2023-05-11T23:19:28.108Z,101127.50
2023-05-11T23:22:00.809Z,101129.25
2023-05-11T23:24:33.193Z,101124.89
2023-05-11T23:27:05.703Z,101130.10
2023-05-11T23:29:38.792Z,101129.23
2023-05-11T23:32:11.220Z,101119.70
2023-05-11T23:34:43.646Z,101119.66
2023-05-11T23:37:16.979Z,101119.69
2023-05-11T23:39:49.206Z,101120.55
2023-05-11T23:42:22.148Z,101121.42
2023-05-11T23:44:54.709Z,101130.98
2023-05-11T23:47:27.318Z,101121.42
2023-05-11T23:49:59.917Z,101129.22
2023-05-11T23:52:32.754Z,101125.75
2023-05-11T23:55:06.461Z,101130.09
2023-05-11T23:57:41.337Z,101130.97
